Terminal Aerodrome Forecast
Issued by NWS

Home | Current Version | Previous Version | Text Only | Print | Product List | Glossary On
Versions: 1 2 3 4 5 6 7 8 9 10 11 12 13 14 15 16 17 18 19 20 21 22 23
994
FTUS42 KFFC 211342 AAA
TAFPDK
TAF AMD
KPDK 211342Z 2114/2212 17005KT 2SM TSRA OVC004CB
      TEMPO 2114/2118 VRB15G25KT 3SM SHRA BR OVC007
     FM212100 12006KT P6SM VCSH BKN025
     FM220000 12003KT 6SM BR BKN008 OVC012=

USA.gov is the U.S. government's official web portal to all federal, state and local government web resources and services.